Aérodrome :
LOGIN :

S'inscrire | Disclaimer

   EN    FR    IT 

 










Légende :    VFR   VFR Marginal   IFR   IFR Intensif   IFR Très Intensif
Visi : 
Plafond : 
>= 8 km
>= 3000ft
5 à 8 km
1000 à 3000 ft
1500m à 5 km
500 à 1000 ft
800 à 1500m
200 à 500 ft
< 800m
< 200 ft
Symboles :   Orages  Brouillard  Fortes neiges  Fortes précipitations  Vent > 20 kt
SIGMETs :   Divers  Orages  Givrage  Turbulence  Onde Orograph.  Cendres Volcan.







- Altitude de l'aérodrome : 154 ft
- Code IATA : SZZ


EPSC - Szczecin Goleniow

DERNIER METAR :
  • 202330Z VRB01KT 9999 MIFG NSC 04/04 Q1027

METARs EXPIRÉS :
  • 202300Z 27002KT 9999 MIFG NSC 04/04 Q1027
  • 202230Z VRB01KT 9999 MIFG NSC 05/04 Q1027
  • 202200Z VRB02KT 9999 MIFG NSC 06/05 Q1027
  • 202130Z 27003KT CAVOK 06/05 Q1027
  • 202100Z 27003KT 220V310 CAVOK 07/05 Q1027

TAF TAF EPSC
Valide du 21 à 00h jusqu'au 22 à 00h UTC


202330Z 2100/2124 27004KT 7000 NSC
BECMG 2100/2103 3000 BR
TEMPO 2102/2108 0300 FG OVC001
BECMG 2109/2111 21010KT CAVOK
Pas de NOTAMs connus pour ce terrain.



MET'MAP, la Météo Aéronautique d'un coup d'oeil ! - Copyright ORBIFLY Décembre 2007 - Disclaimer

ORBIFLY MET'MAP TEAM :

Programmation & Développement : Alexandra Zaïnal
Conception & Développement : Baudouin d'Aumeries
Co-Programmation & Développement : Marc-Olivier Méhu
Soutien technique & logistique : Manuel Goepfert

Contact : metmap@orbifly.com




SOURCES & CREDITS :

   NOAA